createdAt,value
2018-03-11T00:01:54.120Z,11.40
2018-03-11T00:04:22.393Z,11.04
2018-03-11T00:06:50.692Z,11.05
2018-03-11T00:09:18.973Z,11.02
2018-03-11T00:11:47.320Z,10.92
2018-03-11T00:14:15.592Z,10.95
2018-03-11T00:16:43.882Z,11.05
2018-03-11T00:19:12.152Z,11.08
2018-03-11T00:21:40.416Z,11.11
2018-03-11T00:24:08.725Z,10.95
2018-03-11T00:26:36.997Z,11.02
2018-03-11T00:29:05.368Z,11.20
2018-03-11T00:31:33.660Z,11.10
2018-03-11T00:34:01.965Z,11.08
2018-03-11T00:36:31.100Z,11.20
2018-03-11T00:38:59.380Z,11.13
2018-03-11T00:41:27.663Z,11.27
2018-03-11T00:43:56.024Z,11.26
2018-03-11T00:46:24.301Z,10.97
2018-03-11T00:48:52.592Z,10.94
2018-03-11T00:51:20.872Z,10.91
2018-03-11T00:53:49.176Z,10.86
2018-03-11T00:56:17.457Z,10.83
2018-03-11T00:58:45.796Z,10.81
2018-03-11T01:01:14.086Z,10.88
2018-03-11T01:03:42.372Z,10.87
2018-03-11T01:06:10.649Z,10.98
2018-03-11T01:08:39.000Z,11.03
2018-03-11T01:11:07.300Z,11.03
2018-03-11T01:13:35.669Z,11.19
2018-03-11T01:16:04.767Z,10.98
2018-03-11T01:18:33.121Z,11.02
2018-03-11T01:21:01.392Z,11.01
2018-03-11T01:23:29.679Z,11.02
2018-03-11T01:25:58.060Z,10.94
2018-03-11T01:28:26.324Z,10.95
2018-03-11T01:30:54.608Z,10.98
2018-03-11T01:33:22.884Z,11.03
2018-03-11T01:35:51.170Z,10.85
2018-03-11T01:38:19.439Z,10.97
2018-03-11T01:40:47.812Z,10.86
2018-03-11T01:43:16.076Z,10.83
2018-03-11T01:45:44.364Z,10.91
2018-03-11T01:48:12.649Z,10.85
2018-03-11T01:50:40.913Z,10.86
2018-03-11T01:53:10.116Z,11.07
2018-03-11T01:55:38.402Z,11.10
2018-03-11T01:58:06.792Z,11.26
2018-03-11T02:00:36.306Z,11.44
2018-03-11T02:03:04.664Z,11.57
2018-03-11T02:05:33.072Z,11.60
2018-03-11T02:08:01.416Z,11.41
2018-03-11T02:10:29.713Z,11.29
2018-03-11T02:12:57.984Z,11.36
2018-03-11T02:15:26.345Z,11.47
2018-03-11T02:17:54.724Z,11.44
2018-03-11T02:20:23.094Z,11.56
2018-03-11T02:22:51.387Z,11.61
2018-03-11T02:25:19.758Z,11.68
2018-03-11T02:27:48.847Z,11.74
2018-03-11T02:30:17.133Z,11.78
2018-03-11T02:32:45.424Z,11.78
2018-03-11T02:35:13.709Z,11.77
2018-03-11T02:37:41.993Z,11.53
2018-03-11T02:40:10.336Z,11.59
2018-03-11T02:42:38.712Z,11.71
2018-03-11T02:45:06.983Z,11.77
2018-03-11T02:47:35.282Z,11.79
2018-03-11T02:50:03.558Z,11.81
2018-03-11T02:52:31.827Z,11.29
2018-03-11T02:55:00.122Z,11.49
2018-03-11T02:57:28.467Z,11.15
2018-03-11T02:59:56.743Z,10.99
2018-03-11T03:02:25.133Z,11.10
2018-03-11T03:04:53.412Z,11.26
2018-03-11T03:07:21.688Z,11.38
2018-03-11T03:09:49.965Z,11.46
2018-03-11T03:12:18.248Z,11.53
2018-03-11T03:14:46.524Z,11.49
2018-03-11T03:17:14.892Z,11.31
2018-03-11T03:19:43.264Z,10.86
2018-03-11T03:22:11.542Z,10.54
2018-03-11T03:24:39.823Z,10.84
2018-03-11T03:27:08.109Z,10.97
2018-03-11T03:29:36.464Z,11.07
2018-03-11T03:32:04.848Z,11.21
2018-03-11T03:34:33.119Z,11.30
2018-03-11T03:37:01.411Z,11.37
2018-03-11T03:39:29.696Z,11.35
2018-03-11T03:41:58.053Z,11.43
2018-03-11T03:44:26.310Z,11.37
2018-03-11T03:46:54.598Z,11.45
2018-03-11T03:49:22.869Z,11.42
2018-03-11T03:51:51.142Z,11.53
2018-03-11T03:54:19.450Z,11.52
2018-03-11T03:56:47.811Z,11.41
2018-03-11T03:59:16.185Z,11.27
2018-03-11T04:01:44.484Z,10.90
2018-03-11T04:04:12.752Z,10.95
2018-03-11T04:06:41.035Z,11.11
2018-03-11T04:09:09.393Z,11.18
2018-03-11T04:11:37.683Z,11.26
2018-03-11T04:14:05.946Z,11.29
2018-03-11T04:16:34.208Z,11.32
2018-03-11T04:19:02.494Z,11.36
2018-03-11T04:21:30.790Z,11.45
2018-03-11T04:23:59.052Z,11.47
2018-03-11T04:26:27.356Z,11.54
2018-03-11T04:28:55.804Z,11.57
2018-03-11T04:31:24.190Z,11.52
2018-03-11T04:33:52.464Z,11.52
2018-03-11T04:36:20.772Z,11.57
2018-03-11T04:38:49.032Z,11.58
2018-03-11T04:41:17.398Z,11.56
2018-03-11T04:43:45.685Z,11.62
2018-03-11T04:46:13.940Z,11.60
2018-03-11T04:48:42.228Z,11.63
2018-03-11T04:51:10.613Z,11.59
2018-03-11T04:53:38.977Z,11.50
2018-03-11T04:56:07.271Z,11.56
2018-03-11T04:58:35.536Z,11.58
2018-03-11T05:01:03.826Z,11.64
2018-03-11T05:03:32.091Z,11.64
2018-03-11T05:06:00.373Z,11.70
2018-03-11T05:08:28.651Z,11.67
2018-03-11T05:10:56.919Z,11.65
2018-03-11T05:13:25.202Z,11.67
2018-03-11T05:15:53.568Z,11.68
2018-03-11T05:18:21.839Z,11.70
2018-03-11T05:20:50.226Z,11.73
2018-03-11T05:23:18.501Z,11.65
2018-03-11T05:25:46.766Z,11.67
2018-03-11T05:28:15.053Z,11.70
2018-03-11T05:30:43.428Z,11.69
2018-03-11T05:33:11.696Z,11.74
2018-03-11T05:35:39.991Z,11.79
2018-03-11T05:38:08.267Z,11.88
2018-03-11T05:40:36.635Z,11.92
2018-03-11T05:43:05.008Z,11.83
2018-03-11T05:45:33.280Z,11.74
2018-03-11T05:48:01.573Z,11.79
2018-03-11T05:50:29.861Z,11.87
2018-03-11T05:52:58.218Z,11.87
2018-03-11T05:55:26.499Z,11.92
2018-03-11T05:57:54.875Z,11.97
2018-03-11T06:00:23.136Z,11.99
2018-03-11T06:02:51.432Z,12.06
2018-03-11T06:05:19.696Z,12.04
2018-03-11T06:07:47.993Z,12.01
2018-03-11T06:10:16.251Z,12.05
2018-03-11T06:12:44.633Z,11.87
2018-03-11T06:15:12.907Z,11.13
2018-03-11T06:17:41.289Z,10.85
2018-03-11T06:20:09.665Z,11.19
2018-03-11T06:22:37.950Z,11.48
2018-03-11T06:25:06.524Z,11.65
2018-03-11T06:27:34.797Z,11.80
2018-03-11T06:30:03.086Z,11.88
2018-03-11T06:32:32.133Z,11.67
2018-03-11T06:35:01.177Z,11.28
2018-03-11T06:37:29.468Z,10.87
2018-03-11T06:39:57.760Z,10.76
2018-03-11T06:42:26.100Z,10.89
2018-03-11T06:44:54.476Z,10.69
2018-03-11T06:47:22.770Z,10.87
2018-03-11T06:49:51.046Z,10.97
2018-03-11T06:52:19.328Z,10.82
2018-03-11T06:54:47.621Z,10.96
2018-03-11T06:57:15.959Z,11.26
2018-03-11T06:59:44.235Z,11.51
2018-03-11T07:02:12.529Z,11.78
2018-03-11T07:04:40.797Z,11.78
2018-03-11T07:07:09.092Z,11.73
2018-03-11T07:09:37.371Z,12.12
2018-03-11T07:12:05.651Z,12.40
2018-03-11T07:14:33.940Z,12.65
2018-03-11T07:17:02.207Z,12.92
2018-03-11T07:19:30.476Z,13.07
2018-03-11T07:21:58.762Z,13.28
2018-03-11T07:24:27.027Z,13.40
2018-03-11T07:26:55.381Z,13.51
2018-03-11T07:29:23.744Z,13.62
2018-03-11T07:31:52.123Z,13.64
2018-03-11T07:34:20.404Z,13.29
2018-03-11T07:36:48.672Z,13.35
2018-03-11T07:39:16.964Z,13.43
2018-03-11T07:41:45.337Z,13.38
2018-03-11T07:44:13.600Z,13.28
2018-03-11T07:46:41.888Z,13.40
2018-03-11T07:49:10.151Z,13.35
2018-03-11T07:51:38.432Z,13.00
2018-03-11T07:54:06.727Z,13.17
2018-03-11T07:56:35.104Z,13.28
2018-03-11T07:59:03.436Z,13.25
2018-03-11T08:01:32.463Z,13.29
2018-03-11T08:04:00.724Z,13.40
2018-03-11T08:06:29.016Z,13.60
2018-03-11T08:08:57.316Z,13.65
2018-03-11T08:11:25.611Z,13.61
2018-03-11T08:13:53.872Z,13.72
2018-03-11T08:16:22.141Z,13.68
2018-03-11T08:18:50.423Z,13.65
2018-03-11T08:21:18.694Z,13.77
2018-03-11T08:23:46.962Z,13.90
2018-03-11T08:26:15.240Z,14.02
2018-03-11T08:28:43.619Z,14.14
2018-03-11T08:31:11.987Z,14.26
2018-03-11T08:33:40.269Z,14.26
2018-03-11T08:36:08.563Z,14.14
2018-03-11T08:38:36.850Z,14.14
2018-03-11T08:41:05.193Z,14.12
2018-03-11T08:43:33.464Z,14.21
2018-03-11T08:46:01.837Z,14.41
2018-03-11T08:48:30.100Z,14.55
2018-03-11T08:50:58.407Z,14.59
2018-03-11T08:53:26.804Z,14.62
2018-03-11T08:55:55.056Z,14.57
2018-03-11T08:58:23.316Z,14.61
2018-03-11T09:00:51.596Z,14.16
2018-03-11T09:03:19.884Z,14.35
2018-03-11T09:05:48.255Z,14.63
2018-03-11T09:08:16.539Z,14.81
2018-03-11T09:10:44.817Z,14.75
2018-03-11T09:13:13.076Z,14.90
2018-03-11T09:15:41.509Z,15.00
2018-03-11T09:18:09.737Z,15.06
2018-03-11T09:20:38.013Z,15.27
2018-03-11T09:23:06.392Z,15.21
2018-03-11T09:25:34.774Z,15.38
2018-03-11T09:28:03.044Z,15.38
2018-03-11T09:30:31.325Z,15.20
2018-03-11T09:32:59.587Z,15.31
2018-03-11T09:35:27.840Z,15.38
2018-03-11T09:37:56.887Z,15.56
2018-03-11T09:40:25.157Z,15.90
2018-03-11T09:42:53.437Z,16.11
2018-03-11T09:45:21.712Z,15.98
2018-03-11T09:47:50.079Z,15.57
2018-03-11T09:50:18.347Z,15.65
2018-03-11T09:52:46.627Z,15.61
2018-03-11T09:55:14.902Z,15.81
2018-03-11T09:57:43.167Z,15.70
2018-03-11T10:00:11.441Z,15.68
2018-03-11T10:02:39.704Z,15.70
2018-03-11T10:05:08.724Z,15.77
2018-03-11T10:07:37.005Z,15.58
2018-03-11T10:10:05.269Z,15.50
2018-03-11T10:12:33.656Z,15.33
2018-03-11T10:15:01.921Z,15.68
2018-03-11T10:17:30.216Z,15.63
2018-03-11T10:19:58.492Z,15.54
2018-03-11T10:22:26.764Z,15.49
2018-03-11T10:24:55.036Z,15.25
2018-03-11T10:27:23.310Z,14.87
2018-03-11T10:29:51.561Z,14.30
2018-03-11T10:32:20.683Z,13.47
2018-03-11T10:34:48.952Z,13.22
2018-03-11T10:37:17.288Z,13.29
2018-03-11T10:39:45.650Z,12.99
2018-03-11T10:42:13.976Z,13.04
2018-03-11T10:44:42.266Z,12.81
2018-03-11T10:47:10.542Z,12.90
2018-03-11T10:49:39.113Z,12.84
2018-03-11T10:52:07.392Z,13.02
2018-03-11T10:54:35.769Z,13.03
2018-03-11T10:57:04.026Z,13.14
2018-03-11T10:59:33.113Z,13.36
2018-03-11T11:02:02.132Z,13.50
2018-03-11T11:04:34.156Z,13.70
2018-03-11T11:07:02.490Z,14.04
2018-03-11T11:09:30.762Z,14.13
2018-03-11T11:11:59.109Z,14.12
2018-03-11T11:14:28.177Z,14.26
2018-03-11T11:16:56.521Z,14.59
2018-03-11T11:19:24.895Z,14.72
2018-03-11T11:21:53.175Z,15.07
2018-03-11T11:24:21.634Z,15.58
2018-03-11T11:26:50.592Z,15.84
2018-03-11T11:29:19.211Z,15.85
2018-03-11T11:31:47.704Z,16.08
2018-03-11T11:34:16.051Z,16.39
2018-03-11T11:36:45.179Z,16.60
2018-03-11T11:39:13.444Z,17.17
2018-03-11T11:41:41.859Z,17.23
2018-03-11T11:44:10.214Z,16.93
2018-03-11T11:46:38.472Z,17.27
2018-03-11T11:49:06.782Z,17.72
2018-03-11T11:51:35.159Z,17.85
2018-03-11T11:54:03.826Z,18.03
2018-03-11T11:56:32.717Z,18.37
2018-03-11T11:59:01.506Z,18.50
2018-03-11T12:01:29.887Z,18.79
2018-03-11T12:03:58.312Z,18.65
2018-03-11T12:06:27.820Z,18.32
2018-03-11T12:08:57.785Z,18.29
2018-03-11T12:11:27.569Z,18.16
2018-03-11T12:13:57.325Z,18.05
2018-03-11T12:16:27.192Z,18.09
2018-03-11T12:18:57.299Z,17.95
2018-03-11T12:21:27.157Z,17.66
2018-03-11T12:23:57.085Z,17.86
2018-03-11T12:26:27.268Z,18.04
2018-03-11T12:28:58.003Z,17.86
2018-03-11T12:31:28.609Z,17.58
2018-03-11T12:33:58.527Z,17.40
2018-03-11T12:36:28.339Z,17.30
2018-03-11T12:38:58.107Z,17.01
2018-03-11T12:41:28.045Z,16.60
2018-03-11T12:43:58.079Z,16.42
2018-03-11T12:46:27.936Z,16.42
2018-03-11T12:48:58.687Z,16.32
2018-03-11T12:51:28.512Z,16.14
2018-03-11T12:53:58.475Z,16.04
2018-03-11T12:56:28.205Z,16.08
2018-03-11T12:58:59.034Z,16.03
2018-03-11T13:01:29.831Z,16.07
2018-03-11T13:03:59.547Z,16.29
2018-03-11T13:06:29.503Z,16.25
2018-03-11T13:09:00.239Z,16.35
2018-03-11T13:11:30.919Z,16.48
2018-03-11T13:14:00.824Z,16.54
2018-03-11T13:16:30.477Z,16.63
2018-03-11T13:19:01.123Z,16.73
2018-03-11T13:21:30.876Z,17.07
2018-03-11T13:24:00.815Z,17.42
2018-03-11T13:26:30.841Z,17.55
2018-03-11T13:29:00.735Z,17.44
2018-03-11T13:31:30.873Z,17.59
2018-03-11T13:37:13.147Z,18.01
2018-03-11T13:40:00.447Z,18.03
2018-03-11T13:42:31.024Z,17.86
2018-03-11T13:45:18.541Z,17.86
2018-03-11T13:47:47.970Z,17.71
2018-03-11T13:50:17.895Z,17.61
2018-03-11T13:53:05.078Z,17.56
2018-03-11T13:55:34.993Z,17.72
2018-03-11T14:01:18.461Z,18.23
2018-03-11T14:03:48.510Z,18.43
2018-03-11T14:06:19.205Z,18.76
2018-03-11T14:08:49.194Z,19.18
2018-03-11T14:11:19.095Z,19.48
2018-03-11T14:13:48.836Z,20.25
2018-03-11T14:16:18.793Z,21.04
2018-03-11T14:18:48.713Z,21.15
2018-03-11T14:21:19.467Z,21.21
2018-03-11T14:23:50.032Z,21.04
2018-03-11T14:26:19.981Z,20.64
2018-03-11T14:28:49.899Z,20.04
2018-03-11T14:31:19.996Z,19.45
2018-03-11T14:33:49.961Z,19.09
2018-03-11T14:36:20.440Z,18.66
2018-03-11T14:38:50.295Z,18.72
2018-03-11T14:41:20.923Z,18.67
2018-03-11T14:43:50.656Z,18.55
2018-03-11T14:46:20.562Z,18.37
2018-03-11T14:48:51.116Z,17.96
2018-03-11T14:51:21.038Z,17.69
2018-03-11T14:53:51.090Z,17.62
2018-03-11T14:56:20.987Z,17.48
2018-03-11T14:58:50.788Z,17.25
2018-03-11T15:01:20.523Z,17.37
2018-03-11T15:03:50.544Z,17.34
2018-03-11T15:06:20.702Z,17.28
2018-03-11T15:08:50.686Z,17.27
2018-03-11T15:11:21.000Z,17.32
2018-03-11T15:13:50.553Z,17.38
2018-03-11T15:16:20.355Z,17.32
2018-03-11T15:18:50.139Z,17.15
2018-03-11T15:21:20.038Z,17.31
2018-03-11T15:23:50.028Z,17.20
2018-03-11T15:26:19.908Z,17.25
2018-03-11T15:28:49.908Z,17.37
2018-03-11T15:31:20.877Z,17.42
2018-03-11T15:33:50.727Z,17.38
2018-03-11T15:36:21.791Z,17.47
2018-03-11T15:38:51.609Z,17.44
2018-03-11T15:41:21.501Z,17.76
2018-03-11T15:43:52.181Z,18.05
2018-03-11T15:46:22.062Z,18.39
2018-03-11T15:48:51.724Z,18.54
2018-03-11T15:51:21.676Z,18.74
2018-03-11T15:53:51.622Z,18.88
2018-03-11T15:56:22.367Z,18.82
2018-03-11T15:58:52.294Z,18.43
2018-03-11T16:01:22.404Z,18.09
2018-03-11T16:03:52.302Z,17.72
2018-03-11T16:06:23.044Z,17.15
2018-03-11T16:08:52.808Z,16.92
2018-03-11T16:11:22.785Z,16.64
2018-03-11T16:13:52.575Z,16.52
2018-03-11T16:16:23.276Z,16.35
2018-03-11T16:18:53.135Z,16.23
2018-03-11T16:21:23.291Z,16.17
2018-03-11T16:23:53.127Z,16.08
2018-03-11T16:26:23.089Z,15.93
2018-03-11T16:28:53.011Z,15.70
2018-03-11T16:31:23.035Z,15.50
2018-03-11T16:33:52.774Z,15.54
2018-03-11T16:36:22.871Z,15.59
2018-03-11T16:38:53.030Z,15.31
2018-03-11T16:41:23.783Z,15.23
2018-03-11T16:43:54.360Z,15.29
2018-03-11T16:46:24.507Z,15.23
2018-03-11T16:48:54.490Z,15.32
2018-03-11T16:51:24.351Z,15.42
2018-03-11T16:53:55.034Z,15.45
2018-03-11T16:56:25.077Z,15.49
2018-03-11T16:58:54.932Z,15.42
2018-03-11T17:01:25.669Z,15.33
2018-03-11T17:03:55.472Z,15.13
2018-03-11T17:06:26.241Z,14.79
2018-03-11T17:08:56.086Z,14.91
2018-03-11T17:11:26.740Z,14.88
2018-03-11T17:13:56.546Z,14.79
2018-03-11T17:16:27.176Z,14.71
2018-03-11T17:18:57.357Z,14.61
2018-03-11T17:21:27.294Z,14.46
2018-03-11T17:23:57.373Z,14.34
2018-03-11T17:26:27.476Z,14.52
2018-03-11T17:28:57.361Z,14.47
2018-03-11T17:31:27.945Z,14.62
2018-03-11T17:33:57.823Z,14.59
2018-03-11T17:36:28.623Z,14.43
2018-03-11T17:38:58.507Z,14.34
2018-03-11T17:41:28.534Z,14.34
2018-03-11T17:43:58.706Z,14.23
2018-03-11T17:46:29.367Z,14.35
2018-03-11T17:48:59.138Z,14.30
2018-03-11T17:51:29.223Z,14.30
2018-03-11T17:53:59.162Z,14.33
2018-03-11T17:56:29.130Z,14.38
2018-03-11T17:58:59.042Z,14.15
2018-03-11T18:01:29.093Z,14.29
2018-03-11T18:03:58.912Z,14.45
2018-03-11T18:06:29.009Z,14.49
2018-03-11T18:08:59.818Z,14.49
2018-03-11T18:11:29.737Z,14.42
2018-03-11T18:13:59.578Z,14.53
2018-03-11T18:16:29.778Z,14.58
2018-03-11T18:18:59.580Z,14.49
2018-03-11T18:21:29.497Z,14.47
2018-03-11T18:24:02.981Z,14.36
2018-03-11T18:26:33.563Z,14.34
2018-03-11T18:29:03.326Z,14.32
2018-03-11T18:31:34.271Z,14.34
2018-03-11T18:34:04.040Z,14.38
2018-03-11T18:36:34.007Z,14.32
2018-03-11T18:39:03.871Z,14.42
2018-03-11T18:41:34.240Z,14.51
2018-03-11T18:44:03.943Z,14.55
2018-03-11T18:46:33.749Z,14.55
2018-03-11T18:49:03.754Z,14.20
2018-03-11T18:51:34.565Z,14.32
2018-03-11T18:54:05.504Z,14.36
2018-03-11T18:56:35.563Z,14.24
2018-03-11T18:59:05.397Z,14.17
2018-03-11T19:01:35.043Z,13.98
2018-03-11T19:04:04.862Z,13.81
2018-03-11T19:06:34.814Z,13.84
2018-03-11T19:09:05.638Z,13.70
2018-03-11T19:11:36.471Z,13.66
2018-03-11T19:14:06.269Z,13.74
2018-03-11T19:16:37.253Z,13.85
2018-03-11T19:19:07.351Z,13.93
2018-03-11T19:21:38.230Z,13.94
2018-03-11T19:24:08.221Z,13.87
2018-03-11T19:26:38.333Z,13.91
2018-03-11T19:29:08.361Z,13.95
2018-03-11T19:31:38.370Z,13.97
2018-03-11T19:34:08.215Z,13.93
2018-03-11T19:36:38.164Z,13.47
2018-03-11T19:39:08.795Z,13.52
2018-03-11T19:41:39.542Z,13.24
2018-03-11T19:44:09.967Z,13.31
2018-03-11T19:46:40.742Z,13.29
2018-03-11T19:49:10.520Z,13.20
2018-03-11T19:51:40.378Z,13.12
2018-03-11T19:54:10.388Z,13.15
2018-03-11T19:56:40.319Z,13.15
2018-03-11T19:59:10.120Z,13.25
2018-03-11T20:01:40.160Z,13.26
2018-03-11T20:04:11.235Z,13.23
2018-03-11T20:06:41.489Z,13.25
2018-03-11T20:09:11.994Z,13.24
2018-03-11T20:11:42.040Z,13.26
2018-03-11T20:14:12.307Z,13.16
2018-03-11T20:16:42.605Z,13.05
2018-03-11T20:19:13.853Z,13.03
2018-03-11T20:21:44.778Z,12.98
2018-03-11T20:24:14.803Z,12.91
2018-03-11T20:26:44.862Z,12.88
2018-03-11T20:29:14.771Z,12.85
2018-03-11T20:31:44.711Z,12.81
2018-03-11T20:34:14.463Z,12.76
2018-03-11T20:36:44.935Z,12.71
2018-03-11T20:39:14.833Z,12.48
2018-03-11T20:41:44.802Z,12.46
2018-03-11T20:44:15.523Z,12.38
2018-03-11T20:46:46.147Z,12.23
2018-03-11T20:49:15.823Z,12.25
2018-03-11T20:51:46.503Z,12.30
2018-03-11T20:54:16.280Z,12.30
2018-03-11T20:56:46.243Z,12.32
2018-03-11T20:59:16.086Z,12.32
2018-03-11T21:01:45.666Z,12.31
2018-03-11T21:04:15.573Z,12.22
2018-03-11T21:06:46.578Z,12.10
2018-03-11T21:09:17.501Z,11.85
2018-03-11T21:11:48.439Z,11.69
2018-03-11T21:14:18.066Z,11.28
2018-03-11T21:16:47.979Z,11.36
2018-03-11T21:19:18.130Z,11.40
2018-03-11T21:21:48.106Z,10.99
2018-03-11T21:24:18.720Z,11.05
2018-03-11T21:26:49.409Z,11.14
2018-03-11T21:29:19.472Z,10.81
2018-03-11T21:31:50.020Z,10.53
2018-03-11T21:34:20.205Z,10.63
2018-03-11T21:36:50.455Z,10.90
2018-03-11T21:39:21.057Z,11.05
2018-03-11T21:41:50.844Z,11.13
2018-03-11T21:44:21.421Z,10.59
2018-03-11T21:46:52.158Z,10.48
2018-03-11T21:49:22.849Z,10.44
2018-03-11T21:51:53.816Z,10.53
2018-03-11T21:54:23.836Z,10.58
2018-03-11T21:56:54.687Z,10.61
2018-03-11T21:59:24.371Z,10.24
2018-03-11T22:01:54.405Z,10.39
2018-03-11T22:04:25.042Z,10.57
2018-03-11T22:06:55.911Z,10.66
2018-03-11T22:09:26.015Z,10.61
2018-03-11T22:11:55.726Z,10.62
2018-03-11T22:14:25.592Z,10.67
2018-03-11T22:16:54.522Z,10.66
2018-03-11T22:19:22.983Z,10.50
2018-03-11T22:21:51.343Z,10.52
2018-03-11T22:24:20.467Z,10.58
2018-03-11T22:26:48.848Z,10.55
2018-03-11T22:29:17.124Z,10.51
2018-03-11T22:31:45.400Z,10.25
2018-03-11T22:34:13.660Z,10.19
2018-03-11T22:36:41.939Z,10.01
2018-03-11T22:39:10.192Z,9.76
2018-03-11T22:41:39.226Z,9.59
2018-03-11T22:44:07.488Z,9.64
2018-03-11T22:46:35.755Z,9.71
2018-03-11T22:49:04.010Z,9.75
2018-03-11T22:51:32.331Z,9.73
2018-03-11T22:54:00.580Z,9.75
2018-03-11T22:56:29.599Z,9.52
2018-03-11T22:58:57.976Z,9.10
2018-03-11T23:01:26.232Z,9.19
2018-03-11T23:03:54.536Z,9.34
2018-03-11T23:06:22.791Z,9.37
2018-03-11T23:08:51.888Z,9.38
2018-03-11T23:11:20.174Z,9.38
2018-03-11T23:13:48.426Z,9.36
2018-03-11T23:16:17.460Z,9.37
2018-03-11T23:19:03.653Z,8.86
2018-03-11T23:21:31.920Z,8.69
2018-03-11T23:24:00.197Z,8.46
2018-03-11T23:26:28.469Z,8.74
2018-03-11T23:28:56.734Z,8.90
2018-03-11T23:31:25.010Z,8.96
2018-03-11T23:33:53.308Z,9.05
2018-03-11T23:36:21.563Z,9.11
2018-03-11T23:38:49.824Z,9.23
2018-03-11T23:41:18.865Z,9.33
2018-03-11T23:43:47.213Z,9.36
2018-03-11T23:46:15.467Z,9.26
2018-03-11T23:48:44.499Z,9.21
2018-03-11T23:51:12.750Z,9.22
2018-03-11T23:53:40.996Z,9.23
2018-03-11T23:56:09.301Z,9.19
2018-03-11T23:58:37.588Z,9.16
